Time;durP1;ratioP1;P1;durP2;ratioP2;P2;SDS_P1;SDS_P2;PMS_P1;PMS_P2;Temp;Humidity;BMP_temperature;BMP_pressure;BME280_temperature;BME280_humidity;BME280_pressure;Samples;Min_cycle;Max_cycle;Signal;HPM_P1;HPM_P2
2022/06/07 00:00:51;;;;;;;5.83;5.33;;;;;;;16.03;100.00;99268.41;4738710;30;20331;-91
2022/06/07 00:03:19;;;;;;;5.60;5.10;;;;;;;16.03;100.00;99266.53;4719751;30;20331;-91
2022/06/07 00:05:46;;;;;;;6.37;5.70;;;;;;;16.01;100.00;99265.97;4722564;30;20233;-90
2022/06/07 00:08:15;;;;;;;5.63;5.23;;;;;;;15.95;100.00;99267.03;4730688;30;20260;-91
2022/06/07 00:10:43;;;;;;;5.73;5.33;;;;;;;15.95;100.00;99261.63;4690865;30;20233;-91
2022/06/07 00:13:11;;;;;;;6.60;6.10;;;;;;;15.92;100.00;99261.31;4739907;30;20242;-91
2022/06/07 00:15:42;;;;;;;6.03;5.53;;;;;;;15.89;100.00;99259.16;4728077;30;20252;-91
2022/06/07 00:18:09;;;;;;;6.13;5.53;;;;;;;15.87;100.00;99259.41;4729991;30;20236;-91
2022/06/07 00:20:37;;;;;;;6.03;5.53;;;;;;;15.89;100.00;99261.84;4731766;30;20336;-91
2022/06/07 00:23:06;;;;;;;6.53;5.93;;;;;;;15.83;100.00;99251.03;4708551;30;20311;-91
2022/06/07 00:25:33;;;;;;;6.17;5.67;;;;;;;15.85;100.00;99248.06;4723780;30;20241;-91
2022/06/07 00:28:00;;;;;;;6.63;6.00;;;;;;;15.82;100.00;99253.97;4724087;30;20734;-91
2022/06/07 00:30:28;;;;;;;6.93;5.80;;;;;;;15.79;100.00;99254.50;4728542;30;20229;-91
2022/06/07 00:32:56;;;;;;;6.93;6.33;;;;;;;15.78;100.00;99251.00;4724254;30;20709;-91
2022/06/07 00:35:22;;;;;;;6.47;5.80;;;;;;;15.78;100.00;99253.69;4726543;30;20241;-92
2022/06/07 00:37:49;;;;;;;6.83;6.13;;;;;;;15.77;100.00;99248.59;4724234;30;20287;-91
2022/06/07 00:40:16;;;;;;;6.10;5.50;;;;;;;15.74;100.00;99239.09;4722071;30;20275;-91
2022/06/07 00:42:43;;;;;;;6.57;6.07;;;;;;;15.77;100.00;99245.88;4719607;30;20246;-91
2022/06/07 00:45:14;;;;;;;6.17;5.70;;;;;;;15.71;100.00;99231.53;4725999;30;20237;-91
2022/06/07 00:47:41;;;;;;;6.40;5.90;;;;;;;15.69;100.00;99235.56;4711883;30;20249;-92
2022/06/07 00:50:14;;;;;;;6.60;5.90;;;;;;;15.66;100.00;99236.09;4713536;30;20324;-90
2022/06/07 00:52:41;;;;;;;6.60;6.10;;;;;;;15.63;100.00;99236.63;4724037;30;20269;-91
2022/06/07 00:55:09;;;;;;;6.43;5.93;;;;;;;15.56;100.00;99223.34;4715146;30;20237;-92
2022/06/07 00:57:45;;;;;;;7.13;6.57;;;;;;;15.50;100.00;99229.75;4709892;30;20252;-92
2022/06/07 01:00:23;;;;;;;6.70;5.97;;;;;;;15.48;100.00;99223.00;4724599;30;20240;-91
2022/06/07 01:02:51;;;;;;;6.50;6.00;;;;;;;15.43;100.00;99223.78;4721908;30;20237;-91
2022/06/07 01:05:19;;;;;;;6.37;5.87;;;;;;;15.42;100.00;99222.97;4724680;30;20244;-91
2022/06/07 01:10:44;;;;;;;6.67;6.03;;;;;;;15.30;100.00;99211.53;4725113;30;20357;-91
2022/06/07 01:13:20;;;;;;;7.67;6.07;;;;;;;15.28;100.00;99205.59;4729557;30;20266;-92
2022/06/07 01:15:49;;;;;;;6.70;6.10;;;;;;;15.29;100.00;99206.41;4731938;30;20280;-91
2022/06/07 01:18:16;;;;;;;8.33;6.13;;;;;;;15.23;100.00;99204.75;4712356;30;20261;-91
2022/06/07 01:20:45;;;;;;;6.50;5.90;;;;;;;15.21;100.00;99209.59;4728417;30;20241;-91
2022/06/07 01:23:12;;;;;;;8.53;6.10;;;;;;;15.18;100.00;99210.09;4711732;30;20775;-91
2022/06/07 01:25:40;;;;;;;6.70;6.10;;;;;;;15.13;100.00;99202.78;4723809;30;20245;-91
2022/06/07 01:28:07;;;;;;;6.50;5.87;;;;;;;15.08;100.00;99208.16;4725528;30;20244;-91
2022/06/07 01:30:34;;;;;;;6.20;5.60;;;;;;;15.05;100.00;99203.28;4724373;30;20290;-91
2022/06/07 01:33:01;;;;;;;5.77;5.27;;;;;;;15.00;100.00;99205.94;4723787;30;20236;-91
2022/06/07 01:35:28;;;;;;;6.43;5.87;;;;;;;14.97;100.00;99201.06;4726411;30;20765;-91
2022/06/07 01:37:55;;;;;;;6.23;5.80;;;;;;;15.00;100.00;99197.84;4743618;30;20712;-91
2022/06/07 01:43:14;;;;;;;6.03;5.53;;;;;;;14.99;100.00;99191.63;4702831;30;20291;-91
2022/06/07 01:45:41;;;;;;;5.90;5.40;;;;;;;14.99;100.00;99188.94;4709160;30;20252;-91
2022/06/07 01:48:08;;;;;;;5.70;5.30;;;;;;;14.98;100.00;99181.09;4723703;30;20291;-92
2022/06/07 01:50:35;;;;;;;5.97;4.93;;;;;;;14.95;100.00;99181.63;4726858;30;20752;-91
2022/06/07 01:53:02;;;;;;;5.50;5.10;;;;;;;14.95;100.00;99174.34;4713715;30;20245;-91
2022/06/07 01:55:29;;;;;;;6.07;5.30;;;;;;;14.95;100.00;99176.22;4726313;30;20247;-92
2022/06/07 01:58:03;;;;;;;5.37;4.90;;;;;;;14.91;100.00;99167.03;4722512;30;20233;-92
2022/06/07 02:00:31;;;;;;;5.40;4.90;;;;;;;14.89;100.00;99164.56;4725161;30;20264;-92
2022/06/07 02:02:58;;;;;;;5.63;5.10;;;;;;;14.88;100.00;99164.84;4726141;30;20241;-92
2022/06/07 02:05:25;;;;;;;5.87;5.40;;;;;;;14.87;100.00;99163.22;4727943;30;20595;-91
2022/06/07 02:07:57;;;;;;;5.10;4.70;;;;;;;14.86;100.00;99162.41;4728395;30;20248;-92
2022/06/07 02:10:28;;;;;;;4.90;4.50;;;;;;;14.81;100.00;99158.84;4741040;30;20235;-92
2022/06/07 02:13:00;;;;;;;5.20;4.70;;;;;;;14.79;100.00;99153.72;4731702;30;20327;-92
2022/06/07 02:15:26;;;;;;;5.03;4.63;;;;;;;14.79;100.00;99156.41;4714491;30;20248;-91
2022/06/07 02:17:53;;;;;;;5.53;5.03;;;;;;;14.79;100.00;99159.09;4735459;30;20613;-91
2022/06/07 02:20:33;;;;;;;5.30;4.80;;;;;;;14.76;100.00;99158.81;4725596;30;20252;-92
2022/06/07 02:23:02;;;;;;;5.53;5.03;;;;;;;14.73;100.00;99157.47;4725854;30;20274;-92
2022/06/07 02:25:31;;;;;;;5.13;4.70;;;;;;;14.71;100.00;99147.97;4731387;30;20244;-92
2022/06/07 02:27:58;;;;;;;5.00;4.60;;;;;;;14.70;100.00;99149.88;4729106;30;20237;-92
2022/06/07 02:30:25;;;;;;;4.50;4.20;;;;;;;14.72;100.00;99147.72;4733438;30;20271;-92
2022/06/07 02:32:52;;;;;;;4.57;4.17;;;;;;;14.73;100.00;99157.47;4728592;30;20718;-92
2022/06/07 02:35:18;;;;;;;4.30;4.00;;;;;;;14.74;100.00;99152.88;4727926;30;20240;-92
2022/06/07 02:37:46;;;;;;;4.83;4.43;;;;;;;14.74;100.00;99144.78;4728657;30;20241;-92
2022/06/07 02:40:13;;;;;;;4.20;3.90;;;;;;;14.73;100.00;99145.84;4714445;30;20290;-91
2022/06/07 02:42:41;;;;;;;4.93;4.53;;;;;;;14.72;100.00;99139.66;4724436;30;20301;-92
2022/06/07 02:45:08;;;;;;;4.87;4.47;;;;;;;14.73;100.00;99137.75;4726062;30;20257;-92
2022/06/07 02:47:35;;;;;;;4.57;4.27;;;;;;;14.71;100.00;99142.59;4729890;30;20236;-91
2022/06/07 02:50:09;;;;;;;4.93;4.10;;;;;;;14.75;100.00;99136.41;4725351;30;20308;-91
2022/06/07 02:52:39;;;;;;;5.50;4.27;;;;;;;14.68;100.00;99127.75;4731391;30;20228;-91
2022/06/07 02:55:11;;;;;;;4.50;4.20;;;;;;;14.68;100.00;99127.75;4723057;30;20291;-92
2022/06/07 02:57:39;;;;;;;4.47;4.07;;;;;;;14.70;100.00;99127.47;4726615;30;20232;-92
2022/06/07 03:00:11;;;;;;;4.73;4.20;;;;;;;14.70;100.00;99125.59;4746651;30;20736;-92
2022/06/07 03:02:39;;;;;;;4.90;3.97;;;;;;;14.74;100.00;99123.22;4729473;30;20232;-90
2022/06/07 03:05:07;;;;;;;4.80;4.40;;;;;;;14.77;100.00;99130.78;4725987;30;20237;-91
2022/06/07 03:07:34;;;;;;;5.00;4.50;;;;;;;14.80;100.00;99132.94;4740118;30;20249;-92
2022/06/07 03:10:01;;;;;;;4.30;4.00;;;;;;;14.85;100.00;99130.28;4727540;30;20350;-89
2022/06/07 03:12:30;;;;;;;4.50;4.10;;;;;;;14.90;100.00;99135.72;4712974;30;20249;-92
2022/06/07 03:14:57;;;;;;;4.60;4.20;;;;;;;14.94;100.00;99137.63;4740742;30;20256;-91
2022/06/07 03:17:25;;;;;;;4.17;3.87;;;;;;;14.99;100.00;99136.84;4731169;30;20307;-92
2022/06/07 03:19:52;;;;;;;4.20;3.90;;;;;;;15.04;100.00;99146.88;4710869;30;20249;-92
2022/06/07 03:22:19;;;;;;;8.37;3.90;;;;;;;15.07;100.00;99139.06;4725832;30;20986;-91
2022/06/07 03:24:47;;;;;;;4.43;4.03;;;;;;;15.10;100.00;99146.66;4731590;30;20243;-92
2022/06/07 03:27:14;;;;;;;4.10;3.80;;;;;;;15.11;100.00;99137.50;4732097;30;20253;-91
2022/06/07 03:29:41;;;;;;;4.43;4.13;;;;;;;15.14;100.00;99141.53;4720810;30;20256;-92
2022/06/07 03:32:12;;;;;;;4.57;3.93;;;;;;;15.14;100.00;99131.56;4712718;30;20733;-91
2022/06/07 03:34:40;;;;;;;4.47;4.17;;;;;;;15.17;100.00;99128.34;4726709;30;20243;-91
2022/06/07 03:37:07;;;;;;;4.87;4.07;;;;;;;15.21;100.00;99125.94;4730631;30;20230;-91
2022/06/07 03:39:35;;;;;;;4.47;4.07;;;;;;;15.27;100.00;99139.19;4714586;30;20250;-91
2022/06/07 03:42:02;;;;;;;4.17;3.87;;;;;;;15.27;100.00;99138.38;4726358;30;20607;-91
2022/06/07 03:44:30;;;;;;;6.00;4.03;;;;;;;15.33;100.00;99140.84;4724058;30;20720;-91
2022/06/07 03:47:07;;;;;;;5.70;3.87;;;;;;;15.36;100.00;99132.22;4718075;30;20233;-91
2022/06/07 03:49:34;;;;;;;4.30;4.00;;;;;;;15.46;100.00;99130.63;4727806;30;20244;-91
2022/06/07 03:52:01;;;;;;;4.97;4.27;;;;;;;15.50;100.00;99127.16;4738910;30;20249;-91
2022/06/07 03:54:33;;;;;;;4.63;4.23;;;;;;;15.58;100.00;99126.69;4739295;30;20237;-91
2022/06/07 03:57:00;;;;;;;4.97;4.20;;;;;;;15.66;100.00;99123.47;4724998;30;20288;-91
2022/06/07 03:59:27;;;;;;;5.17;4.00;;;;;;;16.58;100.00;99119.88;4705631;30;20715;-91
2022/06/07 04:01:54;;;;;;;4.03;3.60;;;;;;;18.57;100.00;99126.19;4727602;30;20241;-91
2022/06/07 04:04:21;;;;;;;4.83;3.87;;;;;;;19.82;100.00;99123.25;4743778;30;20241;-91
2022/06/07 04:09:45;;;;;;;3.77;3.47;;;;;;;19.93;100.00;99127.44;4717802;30;20237;-91
2022/06/07 04:12:19;;;;;;;4.17;3.57;;;;;;;19.96;100.00;99117.91;4726958;30;20248;-91
2022/06/07 04:14:48;;;;;;;3.83;3.50;;;;;;;20.10;100.00;99122.31;4720779;30;20337;-90
2022/06/07 04:17:16;;;;;;;4.23;3.80;;;;;;;20.15;100.00;99116.00;4722243;30;20297;-90
2022/06/07 04:19:48;;;;;;;3.63;3.33;;;;;;;20.50;100.00;99101.84;4720310;30;20257;-90
2022/06/07 04:22:17;;;;;;;3.67;3.43;;;;;;;21.09;100.00;99113.88;4705268;30;20241;-90
2022/06/07 04:24:51;;;;;;;4.07;3.70;;;;;;;21.64;100.00;99161.09;4723097;30;20243;-90
2022/06/07 04:27:20;;;;;;;4.10;3.63;;;;;;;22.57;100.00;99251.63;4731709;30;20282;-89
2022/06/07 04:29:51;;;;;;;4.00;3.70;;;;;;;;;;4711474;30;20779;-90
2022/06/07 04:32:20;;;;;;;3.93;3.53;;;;;;;24.09;99.12;99163.78;4725977;30;20242;-90
2022/06/07 04:34:50;;;;;;;5.23;3.50;;;;;;;24.21;92.89;99113.94;4711661;30;20233;-90
2022/06/07 04:37:19;;;;;;;3.73;3.43;;;;;;;23.32;97.96;99106.91;4738657;30;20241;-90
2022/06/07 04:39:48;;;;;;;3.47;3.27;;;;;;;22.74;100.00;99112.53;4728170;30;20296;-90
2022/06/07 04:42:15;;;;;;;3.63;2.93;;;;;;;22.18;100.00;99102.94;4735489;30;20262;-89
2022/06/07 04:44:51;;;;;;;4.47;3.00;;;;;;;21.84;100.00;99110.78;4725318;30;20774;-88
2022/06/07 04:47:25;;;;;;;4.40;3.73;;;;;;;21.55;100.00;99105.69;4733580;30;20242;-90
2022/06/07 04:49:52;;;;;;;3.63;3.33;;;;;;;21.32;100.00;99101.25;4719031;30;20271;-89
2022/06/07 04:52:19;;;;;;;3.50;3.20;;;;;;;21.22;100.00;99106.88;4721548;30;20237;-90
2022/06/07 04:54:51;;;;;;;3.80;3.30;;;;;;;21.13;100.00;99101.34;4726360;30;20331;-90
2022/06/07 04:57:20;;;;;;;3.70;3.20;;;;;;;21.07;100.00;99099.78;4720729;30;20338;-89
2022/06/07 04:59:47;;;;;;;3.53;3.23;;;;;;;21.02;100.00;99103.41;4721468;30;20258;-89
2022/06/07 05:02:14;;;;;;;4.10;3.80;;;;;;;20.99;100.00;99101.28;4720958;30;20259;-89
2022/06/07 05:04:43;;;;;;;3.97;3.60;;;;;;;20.99;100.00;99105.94;4732760;30;20238;-89
2022/06/07 05:07:21;;;;;;;3.67;3.37;;;;;;;20.87;100.00;99108.31;4714939;30;20240;-90
2022/06/07 05:10:01;;;;;;;3.97;3.53;;;;;;;21.09;100.00;99109.25;4723549;30;20728;-89
2022/06/07 05:12:34;;;;;;;3.67;3.40;;;;;;;21.21;100.00;99111.53;4733132;30;20272;-89
2022/06/07 05:15:03;;;;;;;4.40;3.20;;;;;;;21.42;100.00;99120.09;4721221;30;20253;-89
2022/06/07 05:17:38;;;;;;;3.80;3.50;;;;;;;21.73;100.00;99128.47;4728656;30;20765;-89
2022/06/07 05:20:07;;;;;;;3.57;3.27;;;;;;;22.01;100.00;99113.72;4729167;30;20258;-89
2022/06/07 05:22:34;;;;;;;3.60;3.30;;;;;;;22.28;100.00;99112.81;4715319;30;20264;-89
2022/06/07 05:25:09;;;;;;;3.60;3.30;;;;;;;22.69;100.00;99118.09;4724955;30;20235;-89
2022/06/07 05:27:43;;;;;;;3.30;3.00;;;;;;;22.93;100.00;99115.88;4706844;30;20246;-88
2022/06/07 05:30:15;;;;;;;3.50;3.20;;;;;;;23.35;100.00;99116.41;4719985;30;20557;-89
2022/06/07 05:32:45;;;;;;;3.53;3.20;;;;;;;23.73;100.00;99128.47;4725606;30;20240;-89
2022/06/07 05:35:18;;;;;;;4.05;3.65;;;;;;;23.98;100.00;99126.91;4707804;30;20360;-89
2022/06/07 05:37:57;;;;;;;4.47;3.90;;;;;;;24.23;100.00;99128.06;4727828;30;20243;-89
2022/06/07 05:40:28;;;;;;;4.50;3.80;;;;;;;24.21;100.00;99128.41;4741393;30;20241;-89
2022/06/07 05:42:55;;;;;;;4.07;3.72;;;;;;;23.95;100.00;99124.78;4706419;30;20789;-89
2022/06/07 05:45:31;;;;;;;3.92;3.63;;;;;;;24.36;100.00;99130.66;4733666;30;20244;-88
2022/06/07 05:48:02;;;;;;;4.22;3.92;;;;;;;24.58;100.00;99126.97;4737254;30;20242;-88
2022/06/07 05:50:33;;;;;;;3.55;3.25;;;;;;;24.62;97.09;99122.44;4732807;30;20243;-89
2022/06/07 05:53:04;;;;;;;4.32;3.92;;;;;;;24.77;100.00;99127.41;4718539;30;20718;-88
2022/06/07 05:55:37;;;;;;;4.22;3.90;;;;;;;24.59;100.00;99125.03;4726249;30;20236;-88
2022/06/07 05:58:04;;;;;;;3.72;3.47;;;;;;;24.65;100.00;99124.53;4731395;30;20230;-89
2022/06/07 06:00:32;;;;;;;4.50;4.10;;;;;;;24.58;100.00;99126.16;4733637;30;20274;-89
2022/06/07 06:03:00;;;;;;;4.45;3.63;;;;;;;24.68;100.00;99120.34;4714108;30;20253;-89
2022/06/07 06:05:34;;;;;;;4.35;4.05;;;;;;;24.30;100.00;99122.94;4708820;30;20233;-89
2022/06/07 06:11:22;;;;;;;4.90;4.50;;;;;;;24.52;100.00;99125.50;4732059;30;20291;-89
2022/06/07 06:14:08;;;;;;;4.65;4.25;;;;;;;24.65;100.00;99137.41;4715595;30;20247;-89
2022/06/07 06:16:39;;;;;;;4.70;4.30;;;;;;;24.84;100.00;99130.44;4715795;30;20320;-88
2022/06/07 06:19:09;;;;;;;4.85;4.45;;;;;;;24.97;97.73;99132.22;4725075;30;20800;-89
2022/06/07 06:21:43;;;;;;;4.03;3.72;;;;;;;25.62;94.48;99127.50;4728001;30;20303;-88
2022/06/07 06:24:13;;;;;;;4.30;4.00;;;;;;;25.16;97.85;99123.63;4725964;30;20290;-88
2022/06/07 06:26:40;;;;;;;4.82;3.70;;;;;;;25.25;97.20;99127.13;4716707;30;20237;-88
2022/06/07 06:29:10;;;;;;;5.72;4.38;;;;;;;25.02;100.00;99127.69;4710075;30;20734;-88
2022/06/07 06:31:40;;;;;;;4.68;4.38;;;;;;;25.36;100.00;99124.84;4718355;30;20241;-88
2022/06/07 06:34:10;;;;;;;5.13;4.20;;;;;;;25.67;100.00;99114.41;4721442;30;20250;-88
2022/06/07 06:36:39;;;;;;;5.05;4.65;;;;;;;25.43;100.00;99116.91;4732682;30;20251;-88
2022/06/07 06:39:17;;;;;;;4.90;4.28;;;;;;;25.42;100.00;99123.53;4705813;30;20240;-88
2022/06/07 06:41:48;;;;;;;5.22;4.72;;;;;;;25.17;100.00;99111.53;4718243;30;20242;-88
2022/06/07 06:44:21;;;;;;;5.05;4.65;;;;;;;25.22;100.00;99113.28;4715560;30;20255;-88
2022/06/07 06:46:49;;;;;;;5.05;4.63;;;;;;;25.13;100.00;99105.09;4707800;30;20245;-88
2022/06/07 06:49:20;;;;;;;4.80;4.30;;;;;;;25.22;100.00;99113.28;4706917;30;20237;-88
2022/06/07 06:51:48;;;;;;;5.25;4.85;;;;;;;24.95;100.00;99103.56;4707843;30;20582;-88
2022/06/07 06:54:18;;;;;;;5.18;4.72;;;;;;;25.31;100.00;99109.38;4720015;30;20720;-88
2022/06/07 06:56:56;;;;;;;4.88;4.50;;;;;;;25.75;100.00;99110.00;4720146;30;20251;-87
2022/06/07 06:59:27;;;;;;;4.93;4.53;;;;;;;25.38;100.00;99111.63;4725684;30;20272;-88
2022/06/07 07:01:57;;;;;;;5.50;4.93;;;;;;;25.28;100.00;99109.25;4726851;30;20247;-88
2022/06/07 07:04:27;;;;;;;4.72;4.32;;;;;;;25.22;100.00;99113.28;4738043;30;20242;-88
2022/06/07 07:06:56;;;;;;;4.90;4.50;;;;;;;25.47;100.00;99111.59;4724069;30;20233;-88
2022/06/07 07:09:26;;;;;;;6.00;4.45;;;;;;;25.97;100.00;99106.16;4707642;30;20244;-87
2022/06/07 07:12:03;;;;;;;5.70;4.53;;;;;;;26.03;98.83;99104.81;4722263;30;20268;-87
2022/06/07 07:14:48;;;;;;;4.93;4.35;;;;;;;25.54;100.00;99109.13;4719755;30;20411;-88
2022/06/07 07:17:28;;;;;;;4.45;4.05;;;;;;;25.53;100.00;99104.75;4737209;30;20291;-87
2022/06/07 07:19:55;;;;;;;4.43;4.03;;;;;;;25.86;100.00;99102.97;4724819;30;20264;-87
2022/06/07 07:22:22;;;;;;;4.30;4.00;;;;;;;26.48;97.95;99108.50;4707349;30;20244;-87
2022/06/07 07:24:51;;;;;;;5.13;4.50;;;;;;;26.70;96.30;99107.31;4711987;30;20733;-88
2022/06/07 07:27:21;;;;;;;4.82;4.05;;;;;;;27.37;89.34;99109.69;4724428;30;20252;-87
2022/06/07 07:29:48;;;;;;;4.25;3.95;;;;;;;27.62;84.10;99113.28;4716736;30;20807;-88
2022/06/07 07:32:20;;;;;;;3.85;3.55;;;;;;;28.02;80.53;99116.91;4722878;30;20241;-88
2022/06/07 07:34:51;;;;;;;4.35;3.95;;;;;;;28.18;76.59;99108.75;4712254;30;20724;-87
2022/06/07 07:37:19;;;;;;;6.10;3.80;;;;;;;27.85;82.15;99110.84;4724327;30;20240;-88
2022/06/07 07:39:50;;;;;;;4.07;3.78;;;;;;;28.01;80.81;99117.22;4733034;30;20245;-88
2022/06/07 07:42:21;;;;;;;4.15;3.60;;;;;;;28.45;76.63;99113.47;4725558;30;20259;-87
2022/06/07 07:44:58;;;;;;;4.00;3.60;;;;;;;28.95;71.72;99106.59;4723843;30;20709;-88
2022/06/07 07:47:26;;;;;;;4.03;3.45;;;;;;;28.81;69.93;99112.53;4727328;30;20247;-88
2022/06/07 07:49:54;;;;;;;4.28;3.88;;;;;;;29.10;68.97;99100.31;4723658;30;20237;-88
2022/06/07 07:52:23;;;;;;;4.05;3.53;;;;;;;28.81;73.33;99108.97;4726655;30;20290;-87
2022/06/07 07:54:57;;;;;;;3.90;3.60;;;;;;;29.11;69.93;99104.69;4726126;30;20275;-87
2022/06/07 07:57:25;;;;;;;3.65;3.15;;;;;;;29.44;66.13;99100.78;4724615;30;20240;-87
2022/06/07 07:59:52;;;;;;;3.55;3.22;;;;;;;29.56;65.96;99090.44;4722310;30;20255;-88
2022/06/07 08:02:21;;;;;;;3.60;3.30;;;;;;;29.43;66.00;99094.47;4727630;30;20253;-87
2022/06/07 08:04:55;;;;;;;3.65;3.00;;;;;;;29.33;66.24;99088.69;4724514;30;20233;-88
2022/06/07 08:07:22;;;;;;;4.53;3.50;;;;;;;29.57;65.76;99086.53;4735196;30;20248;-87
2022/06/07 08:09:48;;;;;;;3.70;2.80;;;;;;;29.18;63.99;99093.00;4706599;30;20320;-87
2022/06/07 08:12:15;;;;;;;2.88;2.67;;;;;;;29.59;58.10;99095.25;4721027;30;20265;-87
2022/06/07 08:14:42;;;;;;;2.88;2.67;;;;;;;30.02;56.84;99099.00;4724453;30;20232;-88
2022/06/07 08:17:08;;;;;;;3.90;2.70;;;;;;;29.65;59.05;99095.78;4724216;30;20714;-87
2022/06/07 08:19:35;;;;;;;3.45;2.83;;;;;;;30.40;57.48;99098.25;4725355;30;20706;-86
2022/06/07 08:22:04;;;;;;;3.15;2.80;;;;;;;30.54;54.37;99093.84;4706359;30;20347;-86
2022/06/07 08:24:31;;;;;;;3.83;2.60;;;;;;;30.69;52.81;99088.59;4719561;30;20235;-87
2022/06/07 08:26:58;;;;;;;3.97;2.88;;;;;;;30.88;54.30;99091.31;4726196;30;20304;-87
2022/06/07 08:29:25;;;;;;;3.00;2.70;;;;;;;31.17;53.35;99087.91;4734631;30;20303;-87
2022/06/07 08:31:52;;;;;;;2.97;2.67;;;;;;;31.59;49.74;99085.06;4723682;30;20260;-87
2022/06/07 08:39:50;;;;;;;3.10;2.90;;;;;;;31.12;53.82;99071.63;4727026;30;20315;-86
2022/06/07 08:42:38;;;;;;;4.70;2.70;;;;;;;31.03;52.20;99080.16;4725647;30;20714;-86
2022/06/07 08:45:19;;;;;;;3.10;2.60;;;;;;;31.28;50.35;99069.53;4719437;30;20237;-87
2022/06/07 08:47:50;;;;;;;2.85;2.65;;;;;;;31.16;54.08;99072.50;4725681;30;20244;-86
2022/06/07 08:50:26;;;;;;;3.28;3.05;;;;;;;30.47;55.92;99065.28;4705955;30;20237;-87
2022/06/07 08:53:14;;;;;;;5.70;3.08;;;;;;;30.27;59.55;99069.97;4707790;30;20302;-87
2022/06/07 08:55:54;;;;;;;3.47;3.28;;;;;;;29.91;60.50;99071.16;4719683;30;20328;-86
2022/06/07 08:58:28;;;;;;;4.55;3.58;;;;;;;29.85;61.56;99064.31;4724533;30;20290;-86
2022/06/07 09:00:58;;;;;;;3.75;3.30;;;;;;;29.47;60.52;99059.47;4709908;30;20236;-87
2022/06/07 09:03:30;;;;;;;4.72;4.22;;;;;;;29.29;65.81;99055.47;4716752;30;20241;-87
2022/06/07 09:06:10;;;;;;;4.90;4.20;;;;;;;28.96;72.11;99058.59;4722386;30;20268;-86
2022/06/07 09:08:44;;;;;;;7.57;4.53;;;;;;;29.33;68.09;99047.31;4722020;30;20236;-87
2022/06/07 09:14:43;;;;;;;4.13;3.25;;;;;;;28.54;67.21;99058.22;4712815;30;20240;-87
2022/06/07 09:17:19;;;;;;;3.90;3.35;;;;;;;28.29;70.26;99056.72;4718420;30;20281;-87
2022/06/07 09:19:47;;;;;;;3.25;2.95;;;;;;;28.19;68.56;99055.25;4720758;30;20319;-87
2022/06/07 09:22:20;;;;;;;3.00;2.80;;;;;;;27.77;70.76;99046.50;4716713;30;20311;-87
2022/06/07 09:25:07;;;;;;;2.92;2.67;;;;;;;27.58;70.92;99038.06;4718109;30;20312;-87
2022/06/07 09:27:34;;;;;;;4.15;2.90;;;;;;;27.63;72.22;99037.81;4708354;30;20247;-87
2022/06/07 09:30:19;;;;;;;2.65;2.42;;;;;;;27.66;72.05;99039.91;4716610;30;20340;-86
2022/06/07 09:32:49;;;;;;;2.33;2.20;;;;;;;27.36;71.73;99028.31;4706303;30;20248;-87
2022/06/07 09:35:32;;;;;;;2.80;2.60;;;;;;;27.13;71.86;99025.22;4721679;30;20252;-87
2022/06/07 09:38:05;;;;;;;3.13;2.72;;;;;;;27.32;69.78;99023.84;4704939;30;20241;-87
2022/06/07 09:40:37;;;;;;;3.55;2.70;;;;;;;27.06;71.45;99022.22;4720466;30;20240;-87
2022/06/07 09:43:18;;;;;;;2.60;2.38;;;;;;;26.94;70.56;99018.66;4721669;30;20304;-87
2022/06/07 09:45:44;;;;;;;4.43;2.92;;;;;;;26.96;72.29;99014.44;4721596;30;20245;-87
2022/06/07 09:48:32;;;;;;;2.67;2.47;;;;;;;27.07;71.82;99010.09;4733683;30;20240;-87
2022/06/07 09:51:15;;;;;;;2.90;2.40;;;;;;;27.33;71.20;99020.75;4720388;30;20244;-87
2022/06/07 09:53:46;;;;;;;3.63;2.45;;;;;;;27.41;67.51;99011.56;4721819;30;20251;-87
2022/06/07 09:56:40;;;;;;;2.85;2.60;;;;;;;27.41;69.28;99008.81;4718569;30;20709;-87
2022/06/07 09:59:39;;;;;;;2.80;2.60;;;;;;;27.96;69.78;99010.09;4730280;30;20237;-87
2022/06/07 10:02:18;;;;;;;4.47;2.50;;;;;;;28.14;67.32;99005.94;4682603;30;20251;-87
2022/06/07 10:05:07;;;;;;;3.78;2.88;;;;;;;28.11;62.88;99011.34;4722007;30;20232;-86
2022/06/07 10:07:43;;;;;;;3.17;2.85;;;;;;;28.25;62.65;99006.25;4728052;30;20249;-87
2022/06/07 10:10:12;;;;;;;3.05;2.60;;;;;;;28.06;64.12;99003.31;4732217;30;20289;-86
2022/06/07 10:12:39;;;;;;;2.70;2.50;;;;;;;27.70;64.88;98993.22;4727014;30;20245;-87
2022/06/07 10:15:10;;;;;;;2.92;2.63;;;;;;;27.73;65.98;98996.06;4731064;30;20240;-87
2022/06/07 10:18:00;;;;;;;3.05;2.78;;;;;;;27.70;66.84;99002.28;4719065;30;20268;-86
2022/06/07 10:20:58;;;;;;;2.80;2.45;;;;;;;27.31;70.00;99003.78;4702011;30;20295;-87
2022/06/07 10:23:39;;;;;;;4.65;2.97;;;;;;;27.24;71.27;99016.53;4727626;30;20245;-87
2022/06/07 10:26:34;;;;;;;3.10;2.80;;;;;;;26.72;74.95;99011.63;4718479;30;20236;-87
2022/06/07 10:29:04;;;;;;;3.08;2.78;;;;;;;26.52;80.06;99013.31;4720986;30;20256;-86
2022/06/07 10:31:49;;;;;;;3.45;3.15;;;;;;;26.11;79.79;99008.69;4735118;30;20887;-86
2022/06/07 10:34:45;;;;;;;6.63;3.03;;;;;;;25.84;84.51;99001.00;4735151;30;20249;-87
2022/06/07 10:37:25;;;;;;;3.85;3.33;;;;;;;25.67;87.71;98982.72;4734228;30;20256;-87
2022/06/07 10:40:19;;;;;;;3.20;3.00;;;;;;;25.64;87.68;98988.88;4723139;30;20247;-86
2022/06/07 10:42:57;;;;;;;3.25;2.78;;;;;;;25.46;89.32;98986.56;4702570;30;20247;-86
2022/06/07 10:45:31;;;;;;;3.58;2.83;;;;;;;25.40;90.67;98994.19;4722311;30;20236;-86
2022/06/07 10:48:28;;;;;;;3.22;2.92;;;;;;;25.43;88.49;98999.78;4722410;30;20245;-86
2022/06/07 10:52:20;;;;;;;2.92;2.72;;;;;;;25.33;85.26;98996.66;4737578;30;20251;-87
2022/06/07 10:54:04;;;;;;;3.15;2.95;;;;;;;25.06;93.71;98988.88;4721015;30;20267;-86
2022/06/07 10:56:39;;;;;;;3.45;3.00;;;;;;;24.81;99.10;98983.19;4721953;30;20274;-87
2022/06/07 10:59:15;;;;;;;3.30;3.10;;;;;;;24.52;100.00;98992.13;4707612;30;20244;-87
2022/06/07 11:01:54;;;;;;;3.08;2.80;;;;;;;24.45;100.00;98999.25;4722112;30;20249;-87
2022/06/07 11:10:49;;;;;;;5.60;3.03;;;;;;;23.77;100.00;99017.28;4711968;30;20237;-87
2022/06/07 11:13:17;;;;;;;3.80;2.90;;;;;;;23.73;100.00;99016.31;4725626;30;20272;-87
2022/06/07 11:15:59;;;;;;;9.13;4.47;;;;;;;23.63;100.00;99027.56;4737422;30;20231;-87
2022/06/07 11:18:27;;;;;;;10.68;5.15;;;;;;;23.33;100.00;99031.97;4735610;30;20242;-86
2022/06/07 11:21:01;;;;;;;6.45;5.00;;;;;;;23.19;100.00;99039.47;4721322;30;20236;-86
2022/06/07 11:23:47;;;;;;;9.80;5.47;;;;;;;22.90;100.00;99028.31;4735395;30;20329;-86
2022/06/07 11:26:17;;;;;;;6.35;4.50;;;;;;;22.58;100.00;99016.56;4720790;30;20333;-87
2022/06/07 11:28:49;;;;;;;5.72;4.75;;;;;;;22.49;100.00;99017.63;4720307;30;20233;-85
2022/06/07 11:31:19;;;;;;;5.40;4.60;;;;;;;22.42;100.00;99023.50;4706486;30;20302;-86
2022/06/07 11:33:52;;;;;;;5.30;4.40;;;;;;;22.25;100.00;99020.69;4724113;30;20233;-86
2022/06/07 11:36:25;;;;;;;5.40;4.90;;;;;;;22.13;100.00;99020.41;4725694;30;20255;-87
2022/06/07 11:38:55;;;;;;;9.50;5.07;;;;;;;22.04;100.00;99016.81;4735380;30;20241;-86
2022/06/07 11:41:37;;;;;;;6.05;5.05;;;;;;;21.93;100.00;99013.50;4721455;30;20332;-86
2022/06/07 11:44:12;;;;;;;8.35;4.97;;;;;;;21.76;100.00;99019.63;4734498;30;20273;-85
2022/06/07 11:46:39;;;;;;;6.18;5.68;;;;;;;21.61;100.00;99024.59;4722008;30;20240;-87
2022/06/07 11:49:23;;;;;;;5.72;5.15;;;;;;;21.50;100.00;99021.31;4736493;30;20257;-86
2022/06/07 11:52:00;;;;;;;8.02;6.28;;;;;;;21.45;100.00;99032.31;4734310;30;20253;-86
2022/06/07 11:54:45;;;;;;;6.28;5.68;;;;;;;21.43;100.00;99039.97;4707026;30;20327;-87
2022/06/07 11:57:33;;;;;;;5.80;5.30;;;;;;;21.46;100.00;99045.59;4733924;30;20248;-86
2022/06/07 12:00:18;;;;;;;4.85;4.45;;;;;;;21.66;100.00;99049.81;4716024;30;20237;-86
2022/06/07 12:02:57;;;;;;;5.40;4.90;;;;;;;21.97;100.00;99054.63;4732769;30;20263;-87
2022/06/07 12:05:41;;;;;;;5.30;4.80;;;;;;;22.16;100.00;99047.09;4735072;30;20784;-86
2022/06/07 12:08:19;;;;;;;5.53;5.03;;;;;;;22.48;100.00;99054.22;4734674;30;20237;-88
2022/06/07 12:11:29;;;;;;;5.00;4.60;;;;;;;22.62;100.00;99047.56;4717197;30;20260;-86
2022/06/07 12:13:57;;;;;;;4.63;4.20;;;;;;;22.80;100.00;99043.84;4725112;30;20277;-86
2022/06/07 12:16:32;;;;;;;4.63;4.20;;;;;;;22.75;100.00;99043.16;4712302;30;20331;-87
2022/06/07 12:19:04;;;;;;;4.38;3.90;;;;;;;22.69;100.00;99050.66;4724303;30;20240;-86